createdAt,value
2023-01-15T00:02:28.857Z,31.43
2023-01-15T00:04:56.532Z,31.50
2023-01-15T00:07:24.213Z,29.37
2023-01-15T00:09:52.265Z,30.93
2023-01-15T00:12:19.830Z,31.17
2023-01-15T00:14:47.415Z,30.03
2023-01-15T00:17:14.968Z,30.30
2023-01-15T00:19:43.890Z,30.50
2023-01-15T00:22:11.471Z,30.73
2023-01-15T00:24:57.087Z,31.73
2023-01-15T00:27:40.171Z,31.70
2023-01-15T00:30:10.776Z,31.93
2023-01-15T00:32:38.379Z,32.40
2023-01-15T00:35:09.034Z,31.87
2023-01-15T00:37:36.986Z,32.70
2023-01-15T00:40:05.421Z,31.20
2023-01-15T00:42:33.285Z,30.17
2023-01-15T00:45:07.365Z,31.57
2023-01-15T00:47:35.040Z,32.70
2023-01-15T00:50:02.683Z,32.30
2023-01-15T00:52:31.720Z,31.87
2023-01-15T00:54:59.295Z,30.47
2023-01-15T00:57:27.046Z,31.37
2023-01-15T00:59:54.624Z,31.90
2023-01-15T01:02:22.234Z,30.87
2023-01-15T01:04:49.909Z,29.67
2023-01-15T01:07:18.334Z,33.00
2023-01-15T01:09:47.230Z,29.50
2023-01-15T01:12:14.837Z,29.37
2023-01-15T01:14:44.008Z,30.00
2023-01-15T01:17:12.497Z,30.37
2023-01-15T01:19:40.114Z,30.00
2023-01-15T01:22:07.727Z,31.47
2023-01-15T01:24:35.339Z,31.47
2023-01-15T01:27:04.356Z,30.60
2023-01-15T01:29:31.977Z,30.37
2023-01-15T01:32:00.307Z,30.83
2023-01-15T01:34:27.895Z,30.17
2023-01-15T01:36:55.455Z,30.83
2023-01-15T01:39:23.179Z,30.40
2023-01-15T01:41:50.778Z,30.50
2023-01-15T01:45:10.453Z,30.70
2023-01-15T01:47:39.662Z,32.47
2023-01-15T01:50:13.146Z,32.33
2023-01-15T01:52:44.927Z,30.30
2023-01-15T01:55:15.003Z,30.37
2023-01-15T01:57:43.110Z,29.90
2023-01-15T02:00:12.456Z,32.40
2023-01-15T02:02:42.559Z,30.07
2023-01-15T02:05:14.018Z,30.53
2023-01-15T02:07:41.970Z,31.57
2023-01-15T02:10:15.477Z,30.20
2023-01-15T02:12:47.264Z,29.60
2023-01-15T02:15:18.200Z,32.43
2023-01-15T02:17:54.615Z,30.20
2023-01-15T02:20:30.895Z,32.03
2023-01-15T02:23:22.732Z,30.30
2023-01-15T02:26:03.952Z,32.27
2023-01-15T02:28:36.194Z,31.20
2023-01-15T02:31:10.585Z,30.00
2023-01-15T02:33:41.728Z,32.80
2023-01-15T02:36:13.811Z,32.00
2023-01-15T02:38:46.457Z,31.33
2023-01-15T02:41:17.893Z,29.10
2023-01-15T02:43:51.804Z,31.23
2023-01-15T02:46:23.002Z,31.47
2023-01-15T02:48:54.815Z,29.23
2023-01-15T02:51:29.719Z,31.80
2023-01-15T02:54:02.418Z,29.50
2023-01-15T02:56:35.929Z,30.10
2023-01-15T02:59:08.550Z,31.50
2023-01-15T03:01:39.874Z,31.43
2023-01-15T03:04:13.397Z,31.57
2023-01-15T03:06:47.167Z,30.67
2023-01-15T03:09:16.709Z,29.30
2023-01-15T03:11:48.156Z,30.50
2023-01-15T03:14:21.753Z,29.33
2023-01-15T03:16:53.022Z,30.73
2023-01-15T03:19:26.805Z,30.17
2023-01-15T03:21:58.266Z,32.10
2023-01-15T03:24:32.771Z,30.27
2023-01-15T03:27:00.896Z,30.77
2023-01-15T03:29:33.969Z,30.60
2023-01-15T03:32:01.903Z,32.00
2023-01-15T03:34:35.952Z,30.57
2023-01-15T03:37:03.730Z,31.30
2023-01-15T03:39:31.508Z,30.40
2023-01-15T03:42:09.147Z,31.80
2023-01-15T03:44:46.352Z,30.10
2023-01-15T03:47:27.152Z,30.80
2023-01-15T03:50:01.379Z,32.13
2023-01-15T03:52:32.855Z,32.40
2023-01-15T03:55:11.739Z,30.53
2023-01-15T03:57:44.965Z,33.00
2023-01-15T04:00:19.864Z,33.13
2023-01-15T04:02:48.666Z,31.53
2023-01-15T04:05:17.518Z,31.23
2023-01-15T04:07:47.349Z,31.47
2023-01-15T04:10:15.242Z,31.87
2023-01-15T04:12:42.906Z,32.07
2023-01-15T04:15:11.946Z,33.30
2023-01-15T04:17:40.918Z,32.37
2023-01-15T04:20:10.140Z,30.47
2023-01-15T04:22:37.764Z,30.40
2023-01-15T04:25:06.762Z,31.80
2023-01-15T04:27:34.342Z,32.03
2023-01-15T04:30:02.188Z,31.63
2023-01-15T04:32:29.837Z,30.83
2023-01-15T04:34:58.768Z,30.97
2023-01-15T04:37:26.384Z,30.90
2023-01-15T04:39:54.181Z,31.77
2023-01-15T04:42:39.674Z,31.80
2023-01-15T04:45:08.313Z,30.90
2023-01-15T04:47:36.289Z,32.00
2023-01-15T04:50:05.926Z,30.83
2023-01-15T04:52:33.503Z,30.80
2023-01-15T04:55:01.174Z,33.13
2023-01-15T04:57:28.752Z,31.07
2023-01-15T04:59:56.414Z,31.53
2023-01-15T05:02:24.113Z,32.60
2023-01-15T05:04:51.850Z,29.93
2023-01-15T05:07:20.923Z,33.23
2023-01-15T05:09:51.559Z,31.40
2023-01-15T05:12:19.355Z,32.67
2023-01-15T05:14:46.996Z,32.13
2023-01-15T05:17:14.563Z,31.17
2023-01-15T05:19:42.152Z,29.47
2023-01-15T05:22:09.962Z,31.43
2023-01-15T05:24:38.958Z,29.80
2023-01-15T05:27:06.592Z,31.20
2023-01-15T05:29:34.690Z,31.03
2023-01-15T05:32:02.609Z,32.10
2023-01-15T05:34:30.192Z,32.87
2023-01-15T05:36:57.918Z,31.00
2023-01-15T05:39:25.609Z,31.10
2023-01-15T05:41:54.598Z,30.97
2023-01-15T05:44:24.277Z,31.43
2023-01-15T05:46:53.768Z,31.70
2023-01-15T05:49:23.329Z,30.50
2023-01-15T05:51:52.383Z,32.00
2023-01-15T05:54:22.342Z,31.40
2023-01-15T05:56:50.333Z,30.57
2023-01-15T05:59:20.908Z,30.57
2023-01-15T06:01:49.011Z,31.63
2023-01-15T06:04:17.813Z,32.70
2023-01-15T06:06:45.510Z,30.20
2023-01-15T06:09:13.324Z,30.87
2023-01-15T06:11:41.717Z,29.93
2023-01-15T06:14:11.250Z,33.47
2023-01-15T06:16:41.264Z,31.77
2023-01-15T06:19:10.972Z,31.57
2023-01-15T06:21:38.763Z,31.57
2023-01-15T06:24:07.411Z,30.90
2023-01-15T06:26:35.203Z,31.23
2023-01-15T06:29:02.797Z,31.90
2023-01-15T06:31:32.405Z,30.50
2023-01-15T06:34:01.454Z,31.10
2023-01-15T06:36:30.956Z,30.30
2023-01-15T06:38:59.673Z,29.77
2023-01-15T06:41:45.412Z,32.40
2023-01-15T06:44:31.854Z,30.83
2023-01-15T06:47:17.047Z,29.50
2023-01-15T06:49:45.947Z,31.07
2023-01-15T06:52:13.634Z,30.20
2023-01-15T06:54:41.454Z,32.07
2023-01-15T06:57:09.385Z,30.93
2023-01-15T06:59:37.314Z,32.00
2023-01-15T07:02:04.971Z,31.60
2023-01-15T07:04:32.810Z,32.73
2023-01-15T07:07:01.790Z,31.80
2023-01-15T07:09:29.579Z,30.57
2023-01-15T07:11:57.159Z,30.30
2023-01-15T07:14:26.733Z,31.97
2023-01-15T07:16:54.596Z,31.00
2023-01-15T07:19:22.214Z,33.73
2023-01-15T07:21:49.898Z,32.60
2023-01-15T07:24:19.213Z,32.00
2023-01-15T07:26:47.561Z,31.70
2023-01-15T07:29:15.706Z,30.70
2023-01-15T07:31:43.409Z,31.17
2023-01-15T07:34:11.235Z,30.23
2023-01-15T07:36:39.150Z,30.67
2023-01-15T07:39:07.726Z,30.03
2023-01-15T07:41:54.357Z,30.93
2023-01-15T07:44:39.705Z,31.20
2023-01-15T07:47:35.602Z,29.87
2023-01-15T07:50:03.561Z,30.30
2023-01-15T07:52:31.138Z,29.67
2023-01-15T07:54:58.700Z,29.27
2023-01-15T07:57:28.305Z,29.50
2023-01-15T07:59:55.866Z,32.13
2023-01-15T08:02:23.921Z,32.43
2023-01-15T08:04:51.487Z,33.50
2023-01-15T08:07:19.123Z,29.03
2023-01-15T08:09:46.695Z,28.83
2023-01-15T08:12:32.103Z,31.00
2023-01-15T08:15:16.565Z,27.20
2023-01-15T08:17:46.085Z,29.33
2023-01-15T08:20:16.322Z,28.40
2023-01-15T08:22:45.221Z,29.17
2023-01-15T08:25:14.629Z,29.77
2023-01-15T08:27:43.269Z,30.17
2023-01-15T08:30:15.163Z,30.30
2023-01-15T08:32:43.198Z,28.70
2023-01-15T08:35:13.032Z,28.43
2023-01-15T08:37:41.105Z,31.00
2023-01-15T08:40:09.846Z,29.87
2023-01-15T08:42:37.433Z,29.43
2023-01-15T08:45:05.518Z,28.20
2023-01-15T08:47:34.505Z,29.73
2023-01-15T08:50:02.197Z,30.27
2023-01-15T08:52:29.951Z,28.50
2023-01-15T08:54:57.542Z,29.03
2023-01-15T08:57:25.294Z,28.77
2023-01-15T08:59:52.908Z,29.73
2023-01-15T09:02:20.547Z,29.97
2023-01-15T09:04:49.575Z,28.83
2023-01-15T09:07:17.644Z,29.37
2023-01-15T09:09:45.235Z,30.47
2023-01-15T09:12:14.151Z,28.17
2023-01-15T09:14:58.176Z,26.97
2023-01-15T09:17:29.661Z,27.63
2023-01-15T09:19:58.558Z,28.70
2023-01-15T09:22:29.838Z,27.90
2023-01-15T09:24:57.406Z,27.63
2023-01-15T09:27:25.056Z,28.40
2023-01-15T09:29:52.890Z,26.63
2023-01-15T09:32:20.493Z,28.37
2023-01-15T09:34:48.207Z,27.10
2023-01-15T09:37:17.296Z,27.73
2023-01-15T09:39:44.934Z,27.50
2023-01-15T09:42:27.651Z,27.80
2023-01-15T09:45:17.872Z,27.20
2023-01-15T09:48:06.588Z,26.90
2023-01-15T09:50:45.659Z,27.47
2023-01-15T09:53:51.012Z,28.00
2023-01-15T09:56:23.543Z,27.70
2023-01-15T09:58:53.248Z,27.27
2023-01-15T10:01:25.416Z,26.87
2023-01-15T10:04:00.253Z,26.33
2023-01-15T10:06:31.594Z,26.80
2023-01-15T10:09:07.651Z,25.77
2023-01-15T10:12:01.076Z,26.60
2023-01-15T10:14:39.273Z,28.63
2023-01-15T10:17:20.545Z,27.60
2023-01-15T10:19:48.437Z,28.13
2023-01-15T10:22:27.965Z,26.03
2023-01-15T10:24:58.629Z,25.57
2023-01-15T10:27:30.135Z,26.37
2023-01-15T10:30:05.996Z,24.40
2023-01-15T10:32:56.870Z,26.17
2023-01-15T10:35:35.788Z,26.63
2023-01-15T10:38:14.888Z,29.00
2023-01-15T10:41:06.411Z,28.17
2023-01-15T10:43:46.482Z,27.37
2023-01-15T10:46:17.191Z,27.63
2023-01-15T10:48:49.848Z,26.93
2023-01-15T10:51:21.910Z,26.27
2023-01-15T10:53:56.175Z,28.23
2023-01-15T10:56:34.440Z,26.47
2023-01-15T10:59:13.125Z,27.80
2023-01-15T11:01:41.754Z,28.03
2023-01-15T11:04:10.329Z,26.67
2023-01-15T11:06:37.942Z,27.17
2023-01-15T11:09:09.824Z,28.47
2023-01-15T11:12:02.288Z,26.40
2023-01-15T11:14:52.116Z,26.63
2023-01-15T11:17:38.066Z,25.67
2023-01-15T11:20:17.456Z,27.50
2023-01-15T11:22:45.335Z,26.93
2023-01-15T11:25:13.164Z,27.10
2023-01-15T11:27:42.251Z,26.17
2023-01-15T11:30:32.051Z,26.07
2023-01-15T11:33:04.027Z,27.07
2023-01-15T11:35:32.616Z,25.40
2023-01-15T11:38:05.311Z,25.57
2023-01-15T11:40:33.253Z,26.17
2023-01-15T11:43:19.872Z,26.33
2023-01-15T11:46:05.869Z,25.80
2023-01-15T11:49:01.499Z,25.90
2023-01-15T11:51:30.125Z,25.03
2023-01-15T11:54:03.986Z,26.77
2023-01-15T11:56:34.980Z,25.63
2023-01-15T11:59:10.531Z,25.10
2023-01-15T12:01:43.641Z,23.57
2023-01-15T12:04:26.916Z,25.90
2023-01-15T12:06:55.597Z,24.87
2023-01-15T12:09:36.346Z,24.57
2023-01-15T12:12:17.765Z,23.70
2023-01-15T12:15:01.439Z,24.30
2023-01-15T12:17:52.219Z,25.20
2023-01-15T12:20:26.765Z,24.93
2023-01-15T12:23:19.443Z,23.93
2023-01-15T12:25:59.822Z,24.37
2023-01-15T12:28:32.806Z,23.53
2023-01-15T12:31:06.443Z,24.00
2023-01-15T12:33:44.278Z,22.87
2023-01-15T12:36:17.660Z,25.37
2023-01-15T12:38:55.356Z,24.17
2023-01-15T12:41:47.813Z,26.33
2023-01-15T12:44:38.601Z,24.70
2023-01-15T12:47:13.091Z,24.03
2023-01-15T12:49:47.370Z,24.03
2023-01-15T12:52:22.779Z,26.57
2023-01-15T12:55:02.776Z,24.63
2023-01-15T12:57:35.355Z,24.50
2023-01-15T13:00:12.420Z,24.17
2023-01-15T13:02:56.990Z,24.10
2023-01-15T13:05:30.333Z,24.17
2023-01-15T13:08:03.112Z,24.37
2023-01-15T13:10:35.289Z,24.00
2023-01-15T13:13:15.297Z,24.37
2023-01-15T13:15:54.058Z,22.67
2023-01-15T13:18:31.583Z,22.40
2023-01-15T13:21:04.477Z,23.40
2023-01-15T13:23:46.237Z,23.47
2023-01-15T13:26:31.235Z,25.30
2023-01-15T13:29:12.262Z,23.83
2023-01-15T13:31:51.779Z,23.67
2023-01-15T13:34:28.361Z,24.37
2023-01-15T13:37:01.584Z,24.53
2023-01-15T13:39:38.480Z,25.67
2023-01-15T13:42:25.027Z,24.33
2023-01-15T13:44:54.904Z,23.97
2023-01-15T13:47:26.223Z,24.43
2023-01-15T13:49:59.657Z,24.23
2023-01-15T13:52:31.398Z,25.83
2023-01-15T13:55:02.087Z,24.77
2023-01-15T13:57:36.025Z,24.70
2023-01-15T14:00:05.366Z,26.37
2023-01-15T14:02:35.708Z,24.70
2023-01-15T14:05:27.721Z,26.83
2023-01-15T14:07:55.481Z,25.40
2023-01-15T14:10:38.496Z,24.60
2023-01-15T14:13:30.691Z,26.27
2023-01-15T14:16:10.466Z,25.43
2023-01-15T14:19:08.683Z,26.83
2023-01-15T14:21:45.601Z,25.50
2023-01-15T14:24:40.261Z,26.57
2023-01-15T14:27:14.526Z,26.37
2023-01-15T14:30:09.405Z,25.53
2023-01-15T14:32:50.991Z,27.43
2023-01-15T14:35:21.900Z,26.97
2023-01-15T14:37:54.548Z,28.30
2023-01-15T14:40:24.591Z,27.17
2023-01-15T14:43:04.881Z,25.33
2023-01-15T14:45:36.131Z,27.07
2023-01-15T14:48:06.418Z,27.20
2023-01-15T14:50:38.861Z,27.40
2023-01-15T14:53:27.029Z,26.63
2023-01-15T14:55:59.469Z,28.00
2023-01-15T14:58:37.129Z,31.80
2023-01-15T15:01:14.747Z,30.83
2023-01-15T15:03:50.861Z,29.73
2023-01-15T15:06:19.228Z,31.47
2023-01-15T15:08:50.224Z,31.47
2023-01-15T15:11:52.146Z,32.70
2023-01-15T15:14:22.279Z,30.80
2023-01-15T15:16:54.699Z,31.57
2023-01-15T15:19:28.920Z,31.07
2023-01-15T15:22:00.194Z,30.03
2023-01-15T15:24:34.213Z,33.00
2023-01-15T15:27:10.493Z,30.73
2023-01-15T15:29:38.060Z,30.17
2023-01-15T15:32:05.869Z,29.93
2023-01-15T15:34:38.186Z,31.47
2023-01-15T15:37:13.818Z,32.60
2023-01-15T15:39:53.617Z,31.73
2023-01-15T15:42:44.678Z,31.90
2023-01-15T15:45:35.754Z,30.97
2023-01-15T15:48:31.557Z,30.60
2023-01-15T15:50:59.736Z,30.60
2023-01-15T15:53:27.336Z,29.17
2023-01-15T15:55:57.823Z,35.67
2023-01-15T15:58:31.375Z,31.40
2023-01-15T16:00:59.266Z,31.63
2023-01-15T16:03:31.170Z,31.60
2023-01-15T16:06:02.046Z,31.07
2023-01-15T16:08:31.308Z,30.60
2023-01-15T16:11:03.022Z,32.17
2023-01-15T16:13:35.377Z,33.97
2023-01-15T16:16:05.003Z,31.67
2023-01-15T16:18:35.697Z,31.50
2023-01-15T16:21:03.916Z,33.20
2023-01-15T16:23:32.136Z,37.27
2023-01-15T16:26:05.848Z,32.07
2023-01-15T16:28:41.017Z,31.80
2023-01-15T16:31:08.964Z,33.23
2023-01-15T16:33:38.719Z,32.20
2023-01-15T16:36:07.907Z,33.30
2023-01-15T16:38:39.047Z,33.80
2023-01-15T16:41:08.575Z,34.80
2023-01-15T16:43:52.376Z,33.87
2023-01-15T16:46:22.298Z,31.87
2023-01-15T16:48:50.175Z,34.90
2023-01-15T16:51:42.156Z,33.83
2023-01-15T16:54:46.664Z,33.67
2023-01-15T16:57:32.104Z,32.47
2023-01-15T17:00:03.014Z,34.20
2023-01-15T17:02:40.904Z,30.67
2023-01-15T17:05:25.769Z,30.20
2023-01-15T17:07:55.698Z,30.10
2023-01-15T17:10:27.100Z,29.37
2023-01-15T17:12:57.249Z,31.60
2023-01-15T17:15:40.433Z,30.27
2023-01-15T17:18:29.149Z,32.10
2023-01-15T17:20:57.398Z,30.40
2023-01-15T17:23:28.915Z,29.87
2023-01-15T17:25:57.959Z,28.63
2023-01-15T17:28:26.915Z,27.50
2023-01-15T17:30:59.506Z,28.63
2023-01-15T17:33:27.285Z,29.27
2023-01-15T17:35:56.588Z,32.20
2023-01-15T17:38:24.211Z,32.17
2023-01-15T17:40:52.981Z,30.93
2023-01-15T17:43:20.602Z,32.43
2023-01-15T17:45:49.929Z,33.13
2023-01-15T17:48:18.336Z,34.73
2023-01-15T17:50:46.168Z,31.93
2023-01-15T17:53:13.761Z,30.60
2023-01-15T17:55:59.035Z,32.73
2023-01-15T17:58:44.137Z,33.57
2023-01-15T18:01:36.297Z,31.93
2023-01-15T18:04:21.774Z,30.70
2023-01-15T18:06:53.140Z,33.60
2023-01-15T18:09:23.590Z,31.33
2023-01-15T18:11:51.157Z,33.30
2023-01-15T18:14:18.857Z,34.53
2023-01-15T18:16:47.919Z,29.90
2023-01-15T18:19:15.513Z,32.40
2023-01-15T18:21:43.316Z,31.73
2023-01-15T18:24:12.103Z,31.13
2023-01-15T18:26:41.375Z,32.30
2023-01-15T18:29:11.405Z,31.97
2023-01-15T18:31:39.954Z,30.63
2023-01-15T18:34:09.179Z,31.13
2023-01-15T18:36:36.760Z,31.13
2023-01-15T18:39:06.915Z,32.03
2023-01-15T18:41:54.103Z,32.40
2023-01-15T18:44:41.742Z,31.87
2023-01-15T18:47:13.254Z,35.10
2023-01-15T18:49:43.455Z,32.03
2023-01-15T18:52:30.541Z,32.10
2023-01-15T18:54:58.175Z,31.80
2023-01-15T18:57:25.875Z,41.97
2023-01-15T18:59:53.688Z,32.00
2023-01-15T19:02:22.778Z,33.97
2023-01-15T19:04:52.056Z,35.40
2023-01-15T19:07:19.756Z,33.30
2023-01-15T19:09:47.365Z,33.73
2023-01-15T19:12:16.953Z,39.33
2023-01-15T19:15:02.006Z,38.10
2023-01-15T19:17:43.484Z,33.87
2023-01-15T19:20:15.022Z,34.73
2023-01-15T19:23:05.032Z,39.67
2023-01-15T19:25:38.292Z,33.77
2023-01-15T19:28:07.272Z,41.37
2023-01-15T19:30:35.581Z,34.10
2023-01-15T19:33:03.175Z,36.57
2023-01-15T19:35:32.310Z,33.63
2023-01-15T19:38:00.006Z,34.40
2023-01-15T19:40:28.662Z,34.80
2023-01-15T19:43:14.377Z,34.90
2023-01-15T19:46:02.240Z,34.60
2023-01-15T19:48:47.325Z,33.83
2023-01-15T19:51:16.716Z,34.20
2023-01-15T19:53:44.301Z,34.73
2023-01-15T19:56:11.958Z,35.33
2023-01-15T19:58:39.644Z,33.53
2023-01-15T20:01:14.056Z,32.27
2023-01-15T20:03:41.804Z,33.60
2023-01-15T20:06:09.788Z,31.93
2023-01-15T20:08:38.750Z,31.67
2023-01-15T20:11:09.341Z,31.63
2023-01-15T20:13:53.358Z,31.93
2023-01-15T20:16:25.230Z,30.90
2023-01-15T20:18:54.943Z,31.43
2023-01-15T20:21:22.479Z,32.97
2023-01-15T20:23:51.667Z,30.10
2023-01-15T20:26:19.298Z,32.17
2023-01-15T20:28:47.722Z,29.10
2023-01-15T20:31:17.165Z,30.33
2023-01-15T20:33:44.921Z,31.13
2023-01-15T20:36:12.485Z,28.50
2023-01-15T20:38:40.123Z,29.03
2023-01-15T20:41:27.777Z,30.17
2023-01-15T20:44:12.871Z,30.17
2023-01-15T20:46:40.441Z,30.03
2023-01-15T20:49:26.980Z,29.23
2023-01-15T20:51:55.177Z,28.67
2023-01-15T20:54:23.734Z,30.73
2023-01-15T20:56:52.765Z,28.60
2023-01-15T20:59:20.480Z,28.70
2023-01-15T21:01:48.200Z,31.03
2023-01-15T21:04:16.048Z,29.67
2023-01-15T21:06:43.826Z,30.23
2023-01-15T21:09:11.479Z,31.37
2023-01-15T21:11:39.389Z,32.10
2023-01-15T21:14:08.406Z,32.13
2023-01-15T21:16:36.077Z,32.50
2023-01-15T21:19:04.832Z,30.27
2023-01-15T21:21:32.517Z,31.73
2023-01-15T21:24:01.567Z,30.50
2023-01-15T21:26:30.945Z,31.17
2023-01-15T21:28:58.777Z,30.80
2023-01-15T21:31:27.995Z,30.90
2023-01-15T21:33:56.460Z,31.17
2023-01-15T21:36:25.331Z,32.33
2023-01-15T21:38:54.303Z,32.00
2023-01-15T21:41:43.772Z,30.43
2023-01-15T21:44:32.558Z,30.60
2023-01-15T21:47:03.495Z,30.07
2023-01-15T21:49:33.219Z,31.73
2023-01-15T21:52:01.238Z,32.90
2023-01-15T21:54:29.163Z,31.27
2023-01-15T21:56:57.226Z,31.70
2023-01-15T21:59:25.404Z,31.50
2023-01-15T22:01:54.751Z,31.03
2023-01-15T22:04:25.338Z,32.40
2023-01-15T22:06:53.123Z,31.80
2023-01-15T22:09:21.659Z,34.13
2023-01-15T22:11:49.872Z,36.53
2023-01-15T22:14:20.815Z,36.57
2023-01-15T22:16:49.800Z,32.23
2023-01-15T22:19:19.776Z,32.90
2023-01-15T22:21:49.144Z,31.00
2023-01-15T22:24:18.887Z,31.17
2023-01-15T22:26:53.687Z,31.90
2023-01-15T22:29:21.852Z,48.40
2023-01-15T22:31:49.463Z,29.77
2023-01-15T22:34:17.200Z,30.43
2023-01-15T22:36:44.848Z,31.30
2023-01-15T22:39:13.992Z,34.80
2023-01-15T22:41:59.441Z,30.73
2023-01-15T22:44:27.087Z,31.27
2023-01-15T22:46:55.165Z,29.90
2023-01-15T22:49:23.180Z,31.60
2023-01-15T22:51:52.071Z,30.03
2023-01-15T22:54:21.623Z,30.17
2023-01-15T22:56:49.364Z,31.13
2023-01-15T22:59:17.549Z,30.80
2023-01-15T23:01:45.283Z,30.53
2023-01-15T23:04:15.168Z,31.30
2023-01-15T23:06:43.940Z,29.60
2023-01-15T23:09:12.917Z,28.73
2023-01-15T23:11:42.001Z,31.37
2023-01-15T23:14:12.241Z,29.70
2023-01-15T23:16:39.934Z,31.30
2023-01-15T23:19:07.531Z,30.77
2023-01-15T23:21:35.746Z,30.93
2023-01-15T23:24:03.829Z,37.30
2023-01-15T23:26:33.615Z,31.83
2023-01-15T23:29:03.021Z,32.17
2023-01-15T23:31:30.941Z,30.03
2023-01-15T23:33:58.986Z,30.63
2023-01-15T23:36:26.976Z,29.93
2023-01-15T23:38:54.947Z,30.60
2023-01-15T23:41:45.729Z,28.90
2023-01-15T23:44:37.460Z,30.10
2023-01-15T23:47:05.888Z,30.97
2023-01-15T23:49:33.549Z,31.77
2023-01-15T23:52:01.900Z,30.23
2023-01-15T23:54:31.274Z,31.33
2023-01-15T23:57:00.640Z,30.63
2023-01-15T23:59:30.266Z,29.87
